Pagina principale
METAR-TAF:

METAR-TAF

Aeroporti :

Aeroporto di Padova

Padova, Italia

latitudine: 45-23-45N, longitudine: 11-50-53E, altezza: 13 m

Osservazione

Il bollettino è stato emesso 6 ore e 42 minuti fa, alle 07:00 UTC
Vento 3 kt da direzioni variabili
Temperature 4°C
Umidità 81%
Pressione 1026 hPa
Visibilità: 9000 m
Nuvoloso ad un'altezza di 4500 ft

METAR: LIPU 060700Z VRB03KT 9000 BKN045 04/01 Q1026

Ora: 14:42 (13:42 UTC)


TAF: mancante

Osservazioni e previsioni meteorologiche di più di 4000 aeroporti (messaggi METAR e TAF).

Le stazioni disponibili sono rappresentate dai dischi gialli e rossi sulla carta.

Puntare il mouse per vedere il nome della stazione.

Clicca sopra per visualizzare le osservazioni e previsioni meteorologiche.

Per cambiare la mappa : fare clic sui pulsanti verdi con una croce nera per ingrandire, il pulsante verde con un trattino per diminuire, o sulla freccia verde per le mappe adiacenti.


METAR-TAF: